createdAt,value
2022-11-16T00:02:22.498Z,7.18
2022-11-16T00:04:50.333Z,7.12
2022-11-16T00:07:18.086Z,6.65
2022-11-16T00:09:46.113Z,6.59
2022-11-16T00:12:13.643Z,6.36
2022-11-16T00:14:42.964Z,6.85
2022-11-16T00:17:10.579Z,7.08
2022-11-16T00:19:38.436Z,6.91
2022-11-16T00:22:06.238Z,7.11
2022-11-16T00:24:34.711Z,7.14
2022-11-16T00:27:02.135Z,7.20
2022-11-16T00:29:30.027Z,7.43
2022-11-16T00:31:59.051Z,7.52
2022-11-16T00:34:27.080Z,7.50
2022-11-16T00:36:54.666Z,7.42
2022-11-16T00:39:22.508Z,7.38
2022-11-16T00:41:50.672Z,7.09
2022-11-16T00:44:18.554Z,6.77
2022-11-16T00:46:46.147Z,6.99
2022-11-16T00:49:15.776Z,7.11
2022-11-16T00:51:43.212Z,6.96
2022-11-16T00:54:11.755Z,6.78
2022-11-16T00:56:39.433Z,6.98
2022-11-16T00:59:07.667Z,6.99
2022-11-16T01:01:35.245Z,6.91
2022-11-16T01:04:03.363Z,7.06
2022-11-16T01:06:32.750Z,7.21
2022-11-16T01:09:03.545Z,7.18
2022-11-16T01:11:31.281Z,7.28
2022-11-16T01:13:59.472Z,7.27
2022-11-16T01:16:26.895Z,7.07
2022-11-16T01:18:55.645Z,7.18
2022-11-16T01:21:23.726Z,7.29
2022-11-16T01:23:53.357Z,7.48
2022-11-16T01:26:20.992Z,7.51
2022-11-16T01:28:49.219Z,7.58
2022-11-16T01:31:16.634Z,7.45
2022-11-16T01:33:44.466Z,7.50
2022-11-16T01:36:13.600Z,7.55
2022-11-16T01:38:42.648Z,7.50
2022-11-16T01:41:13.956Z,7.53
2022-11-16T01:43:57.232Z,7.62
2022-11-16T01:46:25.692Z,7.41
2022-11-16T01:49:00.711Z,7.29
2022-11-16T01:51:29.083Z,7.45
2022-11-16T01:53:59.268Z,7.58
2022-11-16T01:56:31.729Z,7.49
2022-11-16T01:58:59.735Z,7.47
2022-11-16T02:01:27.386Z,7.45
2022-11-16T02:03:55.238Z,7.47
2022-11-16T02:06:32.949Z,7.44
2022-11-16T02:09:20.054Z,7.56
2022-11-16T02:12:17.561Z,7.69
2022-11-16T02:15:03.237Z,7.68
2022-11-16T02:17:39.768Z,7.71
2022-11-16T02:20:36.288Z,7.80
2022-11-16T02:23:45.287Z,7.92
2022-11-16T02:26:32.332Z,7.67
2022-11-16T02:29:14.368Z,7.84
2022-11-16T02:31:49.678Z,7.62
2022-11-16T02:34:19.482Z,7.70
2022-11-16T02:36:50.201Z,7.93
2022-11-16T02:39:21.734Z,7.87
2022-11-16T02:41:50.993Z,7.71
2022-11-16T02:44:23.126Z,7.62
2022-11-16T02:47:01.890Z,7.66
2022-11-16T02:49:31.331Z,7.59
2022-11-16T02:51:59.735Z,7.54
2022-11-16T02:54:30.259Z,7.65
2022-11-16T02:57:24.123Z,7.81
2022-11-16T02:59:56.692Z,7.82
2022-11-16T03:02:29.810Z,7.86
2022-11-16T03:05:01.821Z,7.84
2022-11-16T03:07:32.182Z,7.84
2022-11-16T03:10:00.738Z,7.68
2022-11-16T03:12:32.723Z,7.77
2022-11-16T03:15:05.185Z,7.87
2022-11-16T03:17:38.174Z,7.93
2022-11-16T03:20:07.582Z,7.92
2022-11-16T03:22:39.510Z,7.98
2022-11-16T03:25:09.781Z,8.12
2022-11-16T03:27:41.614Z,8.08
2022-11-16T03:30:13.089Z,8.11
2022-11-16T03:32:45.990Z,8.02
2022-11-16T03:35:19.553Z,7.97
2022-11-16T03:37:49.216Z,8.00
2022-11-16T03:40:18.411Z,7.95
2022-11-16T03:42:47.768Z,7.89
2022-11-16T03:45:18.931Z,7.91
2022-11-16T03:47:47.156Z,7.92
2022-11-16T03:50:15.086Z,8.06
2022-11-16T03:52:42.967Z,8.10
2022-11-16T03:55:10.319Z,8.01
2022-11-16T03:57:38.095Z,7.82
2022-11-16T04:00:07.210Z,7.55
2022-11-16T04:02:36.327Z,7.64
2022-11-16T04:05:03.966Z,7.54
2022-11-16T04:07:31.747Z,7.70
2022-11-16T04:09:59.270Z,7.73
2022-11-16T04:12:27.776Z,7.83
2022-11-16T04:14:55.247Z,7.97
2022-11-16T04:17:25.130Z,7.97
2022-11-16T04:19:57.943Z,7.84
2022-11-16T04:22:30.946Z,7.83
2022-11-16T04:25:05.301Z,7.78
2022-11-16T04:27:33.139Z,7.62
2022-11-16T04:30:02.227Z,7.43
2022-11-16T04:32:30.148Z,7.19
2022-11-16T04:34:59.285Z,7.21
2022-11-16T04:37:26.923Z,7.14
2022-11-16T04:39:54.271Z,7.17
2022-11-16T04:42:22.280Z,7.20
2022-11-16T04:44:49.690Z,7.19
2022-11-16T04:47:17.518Z,7.20
2022-11-16T04:49:44.917Z,6.93
2022-11-16T04:52:14.094Z,6.95
2022-11-16T04:54:41.534Z,6.66
2022-11-16T04:57:09.569Z,6.39
2022-11-16T04:59:37.134Z,6.34
2022-11-16T05:02:05.244Z,6.34
2022-11-16T05:04:32.763Z,6.22
2022-11-16T05:07:00.778Z,6.11
2022-11-16T05:09:29.689Z,6.23
2022-11-16T05:11:57.798Z,6.31
2022-11-16T05:14:25.463Z,6.19
2022-11-16T05:16:53.355Z,6.22
2022-11-16T05:19:20.801Z,6.22
2022-11-16T05:21:48.837Z,6.16
2022-11-16T05:24:16.156Z,6.18
2022-11-16T05:26:45.659Z,6.17
2022-11-16T05:29:13.101Z,6.25
2022-11-16T05:31:41.125Z,6.22
2022-11-16T05:34:09.287Z,6.26
2022-11-16T05:36:37.253Z,6.15
2022-11-16T05:39:05.446Z,6.28
2022-11-16T05:41:33.905Z,6.32
2022-11-16T05:44:02.719Z,6.36
2022-11-16T05:46:30.986Z,6.20
2022-11-16T05:48:58.699Z,6.09
2022-11-16T05:51:26.536Z,6.05
2022-11-16T05:53:53.923Z,5.88
2022-11-16T05:56:21.893Z,6.03
2022-11-16T05:58:49.703Z,5.97
2022-11-16T06:01:19.070Z,5.92
2022-11-16T06:03:46.509Z,5.97
2022-11-16T06:06:14.575Z,5.96
2022-11-16T06:08:42.444Z,5.93
2022-11-16T06:11:13.071Z,6.18
2022-11-16T06:13:40.603Z,6.30
2022-11-16T06:16:08.967Z,6.30
2022-11-16T06:18:40.248Z,6.09
2022-11-16T06:21:08.853Z,6.06
2022-11-16T06:23:36.217Z,6.14
2022-11-16T06:26:05.161Z,6.23
2022-11-16T06:28:33.464Z,6.33
2022-11-16T06:31:02.238Z,6.34
2022-11-16T06:33:33.316Z,6.46
2022-11-16T06:36:03.114Z,6.36
2022-11-16T06:38:30.701Z,6.24
2022-11-16T06:40:59.072Z,6.34
2022-11-16T06:43:27.059Z,6.53
2022-11-16T06:45:57.066Z,6.69
2022-11-16T06:48:24.737Z,6.59
2022-11-16T06:50:53.091Z,6.70
2022-11-16T06:53:27.545Z,6.64
2022-11-16T06:56:01.319Z,6.75
2022-11-16T06:58:29.855Z,6.89
2022-11-16T07:00:57.779Z,6.88
2022-11-16T07:03:25.560Z,7.03
2022-11-16T07:05:53.377Z,7.18
2022-11-16T07:08:22.183Z,7.02
2022-11-16T07:10:50.242Z,6.97
2022-11-16T07:13:17.684Z,6.79
2022-11-16T07:15:45.517Z,6.57
2022-11-16T07:18:12.943Z,6.61
2022-11-16T07:20:40.678Z,6.68
2022-11-16T07:23:12.903Z,6.62
2022-11-16T07:25:43.897Z,6.64
2022-11-16T07:28:11.250Z,6.56
2022-11-16T07:30:39.107Z,6.64
2022-11-16T07:33:06.473Z,6.61
2022-11-16T07:35:35.018Z,6.66
2022-11-16T07:38:03.179Z,6.74
2022-11-16T07:40:31.106Z,6.71
2022-11-16T07:43:00.045Z,6.65
2022-11-16T07:45:27.865Z,6.87
2022-11-16T07:47:55.330Z,6.86
2022-11-16T07:50:23.615Z,6.82
2022-11-16T07:52:50.890Z,6.75
2022-11-16T07:55:18.774Z,6.76
2022-11-16T07:57:51.912Z,6.61
2022-11-16T08:00:22.760Z,6.60
2022-11-16T08:02:50.072Z,6.62
2022-11-16T08:05:17.886Z,6.85
2022-11-16T08:07:45.337Z,6.74
2022-11-16T08:10:13.235Z,6.86
2022-11-16T08:12:40.732Z,7.01
2022-11-16T08:15:09.210Z,7.11
2022-11-16T08:17:38.063Z,7.08
2022-11-16T08:20:07.047Z,7.33
2022-11-16T08:22:34.430Z,7.39
2022-11-16T08:25:02.362Z,7.45
2022-11-16T08:27:30.939Z,7.53
2022-11-16T08:29:59.352Z,7.53
2022-11-16T08:32:26.753Z,7.53
2022-11-16T08:34:56.270Z,7.42
2022-11-16T08:37:26.428Z,7.42
2022-11-16T08:39:54.576Z,7.57
2022-11-16T08:42:22.098Z,7.67
2022-11-16T08:44:50.206Z,7.56
2022-11-16T08:47:18.020Z,7.63
2022-11-16T08:49:49.857Z,7.64
2022-11-16T08:52:18.980Z,7.67
2022-11-16T08:54:46.878Z,7.69
2022-11-16T08:57:14.303Z,7.77
2022-11-16T08:59:42.115Z,7.80
2022-11-16T09:02:09.964Z,7.69
2022-11-16T09:04:37.938Z,7.65
2022-11-16T09:07:08.330Z,7.47
2022-11-16T09:09:37.974Z,7.46
2022-11-16T09:12:05.925Z,7.40
2022-11-16T09:14:33.675Z,7.44
2022-11-16T09:17:01.081Z,7.53
2022-11-16T09:19:28.815Z,7.51
2022-11-16T09:21:56.241Z,7.52
2022-11-16T09:24:24.041Z,7.56
2022-11-16T09:26:52.770Z,7.61
2022-11-16T09:29:20.524Z,7.58
2022-11-16T09:31:47.819Z,7.60
2022-11-16T09:34:15.673Z,7.46
2022-11-16T09:36:43.323Z,7.49
2022-11-16T09:39:30.540Z,7.48
2022-11-16T09:42:16.651Z,7.38
2022-11-16T09:44:58.923Z,7.41
2022-11-16T09:47:44.728Z,7.21
2022-11-16T09:50:31.707Z,7.10
2022-11-16T09:53:13.302Z,7.21
2022-11-16T09:55:47.537Z,7.20
2022-11-16T09:58:23.079Z,6.98
2022-11-16T10:00:59.029Z,6.87
2022-11-16T10:03:28.965Z,6.96
2022-11-16T10:06:01.586Z,6.69
2022-11-16T10:08:41.354Z,6.80
2022-11-16T10:11:31.558Z,6.99
2022-11-16T10:14:17.191Z,7.10
2022-11-16T10:16:49.903Z,6.84
2022-11-16T10:19:27.410Z,6.90
2022-11-16T10:22:01.959Z,6.86
2022-11-16T10:24:36.176Z,6.78
2022-11-16T10:27:27.757Z,6.73
2022-11-16T10:30:07.378Z,6.55
2022-11-16T10:32:39.940Z,6.55
2022-11-16T10:35:16.153Z,6.72
2022-11-16T10:37:48.230Z,6.82
2022-11-16T10:40:21.755Z,6.88
2022-11-16T10:42:58.996Z,6.96
2022-11-16T10:45:35.288Z,6.90
2022-11-16T10:48:14.814Z,6.89
2022-11-16T10:50:45.467Z,6.68
2022-11-16T10:53:14.223Z,6.70
2022-11-16T10:55:42.158Z,6.71
2022-11-16T10:58:10.161Z,6.71
2022-11-16T11:00:43.685Z,6.76
2022-11-16T11:03:12.690Z,6.70
2022-11-16T11:05:49.531Z,6.81
2022-11-16T11:08:26.867Z,6.86
2022-11-16T11:11:03.095Z,6.71
2022-11-16T11:13:35.818Z,6.78
2022-11-16T11:16:18.039Z,6.67
2022-11-16T11:18:47.523Z,6.78
2022-11-16T11:21:19.154Z,6.80
2022-11-16T11:23:49.295Z,6.98
2022-11-16T11:26:34.684Z,6.88
2022-11-16T11:29:15.834Z,6.89
2022-11-16T11:31:49.119Z,6.73
2022-11-16T11:34:21.833Z,6.67
2022-11-16T11:36:52.973Z,6.53
2022-11-16T11:39:39.281Z,6.66
2022-11-16T11:42:20.928Z,6.59
2022-11-16T11:44:56.487Z,6.51
2022-11-16T11:50:45.364Z,6.45
2022-11-16T11:53:24.125Z,6.73
2022-11-16T11:55:55.197Z,6.86
2022-11-16T11:58:26.814Z,6.87
2022-11-16T12:01:09.213Z,6.68
2022-11-16T12:03:50.158Z,6.80
2022-11-16T12:06:30.908Z,6.99
2022-11-16T12:09:13.000Z,6.91
2022-11-16T12:11:56.055Z,6.93
2022-11-16T12:14:35.153Z,6.91
2022-11-16T12:17:12.334Z,6.81
2022-11-16T12:19:55.121Z,6.74
2022-11-16T12:22:48.709Z,6.89
2022-11-16T12:25:25.320Z,6.87
2022-11-16T12:28:11.296Z,7.02
2022-11-16T12:30:49.666Z,6.97
2022-11-16T12:33:29.506Z,6.88
2022-11-16T12:36:02.174Z,6.87
2022-11-16T12:38:43.482Z,6.76
2022-11-16T12:41:40.975Z,6.59
2022-11-16T12:44:11.043Z,6.40
2022-11-16T12:46:50.381Z,6.53
2022-11-16T12:49:37.479Z,6.56
2022-11-16T12:52:22.205Z,6.32
2022-11-16T12:55:29.577Z,6.42
2022-11-16T12:58:11.029Z,6.38
2022-11-16T13:00:51.324Z,6.51
2022-11-16T13:03:23.795Z,6.71
2022-11-16T13:05:59.416Z,6.76
2022-11-16T13:08:40.955Z,6.76
2022-11-16T13:11:15.846Z,6.76
2022-11-16T13:13:49.603Z,6.79
2022-11-16T13:16:22.301Z,6.74
2022-11-16T13:18:51.412Z,6.67
2022-11-16T13:21:28.449Z,6.74
2022-11-16T13:24:16.712Z,6.90
2022-11-16T13:26:54.625Z,7.02
2022-11-16T13:29:32.075Z,7.13
2022-11-16T13:32:09.003Z,7.13
2022-11-16T13:34:39.516Z,7.18
2022-11-16T13:37:36.960Z,7.24
2022-11-16T13:40:29.903Z,7.25
2022-11-16T13:43:17.144Z,7.36
2022-11-16T13:45:54.428Z,7.38
2022-11-16T13:48:25.653Z,7.40
2022-11-16T13:50:57.118Z,7.30
2022-11-16T13:54:25.153Z,7.33
2022-11-16T13:56:25.614Z,7.28
2022-11-16T13:58:58.513Z,7.13
2022-11-16T14:01:46.346Z,7.01
2022-11-16T14:04:34.404Z,6.98
2022-11-16T14:07:02.003Z,7.01
2022-11-16T14:09:42.596Z,6.95
2022-11-16T14:12:55.931Z,7.01
2022-11-16T14:15:28.395Z,6.89
2022-11-16T14:17:59.299Z,6.87
2022-11-16T14:20:49.870Z,6.91
2022-11-16T14:23:34.969Z,6.98
2022-11-16T14:26:12.927Z,7.07
2022-11-16T14:28:50.422Z,7.17
2022-11-16T14:31:24.494Z,7.08
2022-11-16T14:33:53.860Z,6.96
2022-11-16T14:36:37.805Z,6.96
2022-11-16T14:39:33.588Z,6.98
2022-11-16T14:42:04.535Z,6.94
2022-11-16T14:44:37.892Z,7.02
2022-11-16T14:47:20.912Z,6.96
2022-11-16T14:49:48.984Z,6.96
2022-11-16T14:52:20.784Z,6.99
2022-11-16T14:54:53.644Z,7.00
2022-11-16T14:57:23.826Z,6.94
2022-11-16T15:00:08.754Z,7.02
2022-11-16T15:02:39.817Z,7.08
2022-11-16T15:05:07.991Z,7.06
2022-11-16T15:07:36.191Z,7.20
2022-11-16T15:10:14.235Z,7.12
2022-11-16T15:12:42.674Z,7.11
2022-11-16T15:15:15.898Z,7.14
2022-11-16T15:17:51.553Z,7.18
2022-11-16T15:20:21.284Z,7.13
2022-11-16T15:22:52.015Z,7.06
2022-11-16T15:25:30.497Z,6.94
2022-11-16T15:27:59.342Z,6.93
2022-11-16T15:30:31.110Z,6.98
2022-11-16T15:33:02.958Z,6.95
2022-11-16T15:35:32.591Z,6.91
2022-11-16T15:38:16.903Z,6.96
2022-11-16T15:40:50.369Z,6.96
2022-11-16T15:43:18.997Z,6.93
2022-11-16T15:45:47.529Z,6.96
2022-11-16T15:48:20.935Z,6.82
2022-11-16T15:51:05.281Z,6.82
2022-11-16T15:53:38.532Z,6.79
2022-11-16T15:56:09.265Z,6.86
2022-11-16T15:58:39.334Z,6.74
2022-11-16T16:01:07.580Z,6.55
2022-11-16T16:03:38.039Z,6.41
2022-11-16T16:06:06.516Z,6.38
2022-11-16T16:08:36.291Z,6.44
2022-11-16T16:11:10.326Z,6.27
2022-11-16T16:13:40.340Z,6.34
2022-11-16T16:16:26.669Z,6.22
2022-11-16T16:19:01.606Z,6.21
2022-11-16T16:21:42.710Z,6.47
2022-11-16T16:24:30.336Z,6.39
2022-11-16T16:26:58.184Z,6.37
2022-11-16T16:29:27.468Z,6.47
2022-11-16T16:31:55.659Z,6.43
2022-11-16T16:34:25.161Z,6.47
2022-11-16T16:36:52.623Z,6.49
2022-11-16T16:39:20.547Z,6.49
2022-11-16T16:41:48.110Z,6.52
2022-11-16T16:44:16.581Z,6.51
2022-11-16T16:46:44.217Z,6.36
2022-11-16T16:49:12.407Z,6.37
2022-11-16T16:51:41.260Z,6.45
2022-11-16T16:54:13.517Z,6.44
2022-11-16T16:56:41.040Z,6.46
2022-11-16T16:59:09.373Z,6.39
2022-11-16T17:01:36.854Z,6.23
2022-11-16T17:04:04.946Z,6.31
2022-11-16T17:06:32.447Z,6.34
2022-11-16T17:09:01.904Z,6.21
2022-11-16T17:11:29.416Z,6.28
2022-11-16T17:13:57.281Z,6.19
2022-11-16T17:16:25.210Z,6.21
2022-11-16T17:18:54.948Z,6.28
2022-11-16T17:21:22.492Z,6.16
2022-11-16T17:23:50.541Z,6.18
2022-11-16T17:26:19.644Z,6.22
2022-11-16T17:28:47.866Z,6.32
2022-11-16T17:31:15.624Z,6.15
2022-11-16T17:33:46.794Z,6.17
2022-11-16T17:36:14.701Z,6.36
2022-11-16T17:38:42.827Z,6.42
2022-11-16T17:41:11.875Z,6.53
2022-11-16T17:44:06.247Z,6.54
2022-11-16T17:46:34.004Z,6.53
2022-11-16T17:49:02.097Z,6.53
2022-11-16T17:51:29.808Z,6.61
2022-11-16T17:53:57.814Z,6.41
2022-11-16T17:56:26.213Z,6.22
2022-11-16T17:58:54.615Z,6.10
2022-11-16T18:01:23.851Z,5.93
2022-11-16T18:03:51.904Z,5.81
2022-11-16T18:06:21.181Z,5.72
2022-11-16T18:08:49.711Z,5.57
2022-11-16T18:11:18.748Z,5.45
2022-11-16T18:13:48.029Z,5.41
2022-11-16T18:16:17.060Z,5.50
2022-11-16T18:18:48.175Z,5.43
2022-11-16T18:21:20.799Z,5.41
2022-11-16T18:23:49.141Z,5.24
2022-11-16T18:26:18.765Z,5.15
2022-11-16T18:28:46.979Z,4.94
2022-11-16T18:31:16.454Z,4.96
2022-11-16T18:33:46.520Z,5.19
2022-11-16T18:36:14.021Z,5.13
2022-11-16T18:38:41.955Z,4.95
2022-11-16T18:41:16.967Z,4.76
2022-11-16T18:43:48.858Z,4.68
2022-11-16T18:46:16.507Z,4.88
2022-11-16T18:48:44.541Z,4.87
2022-11-16T18:51:14.573Z,4.73
2022-11-16T18:53:42.964Z,4.69
2022-11-16T18:56:10.424Z,4.67
2022-11-16T18:58:54.093Z,4.68
2022-11-16T19:01:23.555Z,4.75
2022-11-16T19:03:52.673Z,4.88
2022-11-16T19:06:22.808Z,4.91
2022-11-16T19:08:56.010Z,4.86
2022-11-16T19:11:24.414Z,4.85
2022-11-16T19:13:53.892Z,4.75
2022-11-16T19:16:21.936Z,4.81
2022-11-16T19:18:49.965Z,4.81
2022-11-16T19:21:18.533Z,4.82
2022-11-16T19:23:49.688Z,4.74
2022-11-16T19:26:19.388Z,4.80
2022-11-16T19:28:49.122Z,4.84
2022-11-16T19:31:18.922Z,4.86
2022-11-16T19:33:47.151Z,4.84
2022-11-16T19:36:16.740Z,4.92
2022-11-16T19:38:47.833Z,5.01
2022-11-16T19:41:17.281Z,4.92
2022-11-16T19:43:45.191Z,5.12
2022-11-16T19:46:15.139Z,5.38
2022-11-16T19:48:43.765Z,5.37
2022-11-16T19:51:13.499Z,5.32
2022-11-16T19:53:41.703Z,4.99
2022-11-16T19:56:12.770Z,5.09
2022-11-16T19:58:42.297Z,4.88
2022-11-16T20:01:12.024Z,4.75
2022-11-16T20:03:40.288Z,4.75
2022-11-16T20:06:09.734Z,4.76
2022-11-16T20:08:39.333Z,4.83
2022-11-16T20:11:16.503Z,4.78
2022-11-16T20:13:44.650Z,4.86
2022-11-16T20:16:15.936Z,5.24
2022-11-16T20:18:44.490Z,5.49
2022-11-16T20:21:16.796Z,5.60
2022-11-16T20:23:45.577Z,5.68
2022-11-16T20:26:15.306Z,5.60
2022-11-16T20:28:44.720Z,5.48
2022-11-16T20:31:14.870Z,5.36
2022-11-16T20:33:49.609Z,5.28
2022-11-16T20:36:17.077Z,5.18
2022-11-16T20:38:45.167Z,5.22
2022-11-16T20:41:16.021Z,5.23
2022-11-16T20:43:45.359Z,4.96
2022-11-16T20:46:14.641Z,5.00
2022-11-16T20:48:43.899Z,4.89
2022-11-16T20:51:14.041Z,4.88
2022-11-16T20:53:41.881Z,4.89
2022-11-16T20:56:10.964Z,4.76
2022-11-16T20:58:40.652Z,4.83
2022-11-16T21:01:10.745Z,4.76
2022-11-16T21:03:38.849Z,4.74
2022-11-16T21:06:07.166Z,4.99
2022-11-16T21:08:35.825Z,4.73
2022-11-16T21:11:10.236Z,4.65
2022-11-16T21:13:39.770Z,4.64
2022-11-16T21:16:09.769Z,4.59
2022-11-16T21:18:40.770Z,4.56
2022-11-16T21:21:10.861Z,4.49
2022-11-16T21:23:39.898Z,4.41
2022-11-16T21:26:11.043Z,4.45
2022-11-16T21:28:41.709Z,4.37
2022-11-16T21:31:12.103Z,4.50
2022-11-16T21:33:40.467Z,4.73
2022-11-16T21:36:11.010Z,4.74
2022-11-16T21:38:39.112Z,4.36
2022-11-16T21:41:07.450Z,4.29
2022-11-16T21:43:36.314Z,4.47
2022-11-16T21:46:07.645Z,4.64
2022-11-16T21:48:36.458Z,4.52
2022-11-16T21:51:05.753Z,4.40
2022-11-16T21:53:34.409Z,4.45
2022-11-16T21:56:03.192Z,4.60
2022-11-16T21:58:31.622Z,4.44
2022-11-16T22:01:00.521Z,4.46
2022-11-16T22:03:31.592Z,4.62
2022-11-16T22:06:00.992Z,4.61
2022-11-16T22:08:28.861Z,4.59
2022-11-16T22:10:56.313Z,4.50
2022-11-16T22:13:24.215Z,4.47
2022-11-16T22:15:51.617Z,4.42
2022-11-16T22:18:19.127Z,4.50
2022-11-16T22:20:49.787Z,4.59
2022-11-16T22:23:21.532Z,4.84
2022-11-16T22:25:50.735Z,5.03
2022-11-16T22:28:20.963Z,4.87
2022-11-16T22:30:51.984Z,4.75
2022-11-16T22:33:19.836Z,4.83
2022-11-16T22:35:49.040Z,4.97
2022-11-16T22:38:16.553Z,4.85
2022-11-16T22:40:49.202Z,4.62
2022-11-16T22:43:16.734Z,4.39
2022-11-16T22:45:44.481Z,4.26
2022-11-16T22:48:11.989Z,4.31
2022-11-16T22:50:39.782Z,4.19
2022-11-16T22:53:08.533Z,4.33
2022-11-16T22:55:37.134Z,4.21
2022-11-16T22:58:05.152Z,4.10
2022-11-16T23:00:37.531Z,4.16
2022-11-16T23:03:08.150Z,4.14
2022-11-16T23:05:36.032Z,4.22
2022-11-16T23:08:03.836Z,4.28
2022-11-16T23:10:33.121Z,4.44
2022-11-16T23:13:00.633Z,4.38
2022-11-16T23:15:28.740Z,4.45
2022-11-16T23:17:56.153Z,4.33
2022-11-16T23:20:24.066Z,4.38
2022-11-16T23:22:51.347Z,4.29
2022-11-16T23:25:19.405Z,4.23
2022-11-16T23:27:55.601Z,4.07
2022-11-16T23:30:25.503Z,4.10
2022-11-16T23:32:53.271Z,4.35
2022-11-16T23:35:21.411Z,4.29
2022-11-16T23:37:55.576Z,4.17
2022-11-16T23:40:25.412Z,4.23
2022-11-16T23:42:55.032Z,4.36
2022-11-16T23:45:22.861Z,4.38
2022-11-16T23:47:50.316Z,4.32
2022-11-16T23:50:18.299Z,4.27
2022-11-16T23:52:45.727Z,4.46
2022-11-16T23:55:13.569Z,4.55
2022-11-16T23:57:41.176Z,4.52
